Time;durP1;ratioP1;P1;durP2;ratioP2;P2;SDS_P1;SDS_P2;PMS_P1;PMS_P2;Temp;Humidity;BMP_temperature;BMP_pressure;BME280_temperature;BME280_humidity;BME280_pressure;Samples;Min_cycle;Max_cycle;Signal;HPM_P1;HPM_P2
2023/06/04 00:01:46;;;;;;;0.10;0.10;;;;;;;6.40;74.21;99900.19;5047101;28;20044;-72
2023/06/04 00:04:12;;;;;;;0.03;0.03;;;;;;;6.39;74.26;99907.47;5043916;28;20054;-72
2023/06/04 00:06:38;;;;;;;0.10;0.10;;;;;;;6.38;74.80;99911.28;5044651;28;20040;-72
2023/06/04 00:09:06;;;;;;;0.10;0.10;;;;;;;6.36;74.45;99915.31;5044273;28;20502;-71
2023/06/04 00:11:33;;;;;;;0.10;0.10;;;;;;;6.31;75.28;99913.31;5046831;28;20036;-73
2023/06/04 00:14:00;;;;;;;0.10;0.10;;;;;;;6.28;76.52;99918.41;5044178;28;20582;-72
2023/06/04 00:16:26;;;;;;;0.10;0.10;;;;;;;6.25;75.90;99922.47;5061774;28;20049;-71
2023/06/04 00:18:52;;;;;;;0.10;0.10;;;;;;;6.22;76.59;99921.03;5042863;28;20084;-72
2023/06/04 00:21:18;;;;;;;0.10;0.10;;;;;;;6.23;75.77;99922.69;5063417;28;20045;-72
2023/06/04 00:23:45;;;;;;;0.10;0.10;;;;;;;6.22;75.80;99925.63;5042871;28;20889;-73
2023/06/04 00:26:12;;;;;;;0.10;0.10;;;;;;;6.22;76.04;99923.75;5043409;28;20052;-73
2023/06/04 00:28:41;;;;;;;0.10;0.10;;;;;;;6.18;76.27;99927.19;5043404;28;20512;-73
2023/06/04 00:31:07;;;;;;;0.10;0.10;;;;;;;6.17;76.28;99933.69;5042579;28;20040;-73
2023/06/04 00:33:35;;;;;;;0.10;0.10;;;;;;;6.11;76.75;99932.78;5024880;28;20049;-73
2023/06/04 00:36:02;;;;;;;0.10;0.10;;;;;;;6.06;76.82;99921.81;5026832;28;20409;-73
2023/06/04 00:38:28;;;;;;;0.10;0.10;;;;;;;6.09;76.52;99932.19;5043840;28;20045;-74
2023/06/04 00:40:54;;;;;;;0.10;0.10;;;;;;;6.07;76.78;99937.84;5049024;28;20099;-73
2023/06/04 00:43:25;;;;;;;0.10;0.10;;;;;;;6.06;76.28;99935.41;5045931;28;20226;-73
2023/06/04 00:45:51;;;;;;;0.10;0.10;;;;;;;6.02;76.99;99928.81;5044352;28;20570;-73
2023/06/04 00:48:17;;;;;;;0.10;0.10;;;;;;;6.02;76.85;99942.38;5045590;28;20049;-73
2023/06/04 00:50:43;;;;;;;0.10;0.10;;;;;;;5.99;77.49;99940.09;5044103;28;20074;-72
2023/06/04 00:53:10;;;;;;;0.10;0.10;;;;;;;5.86;78.16;99925.75;5041131;28;20510;-73
2023/06/04 00:55:36;;;;;;;0.10;0.10;;;;;;;5.98;77.80;99947.44;5046064;28;20041;-72
2023/06/04 00:58:04;;;;;;;0.20;0.10;;;;;;;5.97;77.08;99946.59;5044198;28;20084;-72
2023/06/04 01:00:32;;;;;;;0.08;0.08;;;;;;;5.95;77.42;99950.63;5044966;28;20044;-72
2023/06/04 01:03:05;;;;;;;0.10;0.10;;;;;;;5.91;77.73;99949.44;5043777;28;20049;-73
2023/06/04 01:05:39;;;;;;;0.10;0.10;;;;;;;5.91;77.71;99954.88;5054371;28;20465;-72
2023/06/04 01:08:08;;;;;;;0.10;0.10;;;;;;;5.93;77.09;99958.16;5044788;28;20473;-73
2023/06/04 01:10:35;;;;;;;0.10;0.10;;;;;;;5.92;77.10;99968.22;5041397;28;20118;-73
2023/06/04 01:13:01;;;;;;;0.10;0.10;;;;;;;5.91;77.33;99965.72;5028529;28;20041;-72
2023/06/04 01:15:27;;;;;;;0.10;0.10;;;;;;;5.91;77.34;99965.72;5007624;28;20056;-72
2023/06/04 01:18:02;;;;;;;0.10;0.10;;;;;;;5.89;77.44;99968.69;5042751;28;20045;-72
2023/06/04 01:20:34;;;;;;;0.10;0.10;;;;;;;5.92;77.17;99968.22;5043811;28;20056;-72
2023/06/04 01:23:27;;;;;;;0.10;0.10;;;;;;;5.93;77.03;99964.44;5041866;28;20049;-71
2023/06/04 01:25:54;;;;;;;0.10;0.10;;;;;;;5.92;77.05;99962.78;5040724;28;20122;-72
2023/06/04 01:28:21;;;;;;;0.03;0.03;;;;;;;5.89;76.88;99959.72;5043131;28;20623;-71
2023/06/04 01:30:48;;;;;;;0.10;0.10;;;;;;;5.89;76.97;99974.13;5043405;28;20531;-72
2023/06/04 01:33:17;;;;;;;0.10;0.10;;;;;;;5.91;76.99;99974.69;5039476;28;20055;-72
2023/06/04 01:35:44;;;;;;;0.10;0.10;;;;;;;5.92;76.73;99978.22;5041599;28;20072;-72
2023/06/04 01:38:10;;;;;;;0.10;0.10;;;;;;;5.92;76.59;99978.22;5045031;28;20136;-73
2023/06/04 01:40:37;;;;;;;0.10;0.10;;;;;;;5.93;76.44;99983.44;5008833;28;20057;-72
2023/06/04 01:43:03;;;;;;;0.10;0.10;;;;;;;5.96;76.12;99982.13;5041344;28;20055;-72
2023/06/04 01:45:30;;;;;;;0.10;0.10;;;;;;;5.92;76.55;99984.50;5005428;28;20037;-72
2023/06/04 01:47:56;;;;;;;0.10;0.10;;;;;;;5.96;76.60;99982.94;5026167;28;20045;-72
2023/06/04 01:50:25;;;;;;;0.10;0.10;;;;;;;6.00;76.93;99993.31;5041480;28;20057;-72
2023/06/04 01:52:51;;;;;;;0.10;0.10;;;;;;;6.03;76.61;100001.03;5041748;28;20139;-73
2023/06/04 01:55:17;;;;;;;0.10;0.10;;;;;;;6.01;76.54;100001.25;5042744;28;20427;-73
2023/06/04 01:57:50;;;;;;;0.10;0.10;;;;;;;6.03;76.24;100009.19;5007623;28;20051;-73
2023/06/04 02:00:17;;;;;;;0.10;0.10;;;;;;;6.04;76.67;100005.41;5041441;28;20041;-73
2023/06/04 02:02:45;;;;;;;0.10;0.10;;;;;;;6.04;77.03;100006.19;5024878;28;20077;-72
2023/06/04 02:05:12;;;;;;;0.10;0.10;;;;;;;6.07;76.36;100002.19;5043177;28;20041;-72
2023/06/04 02:07:42;;;;;;;0.13;0.13;;;;;;;6.08;75.73;100009.28;5023782;28;20108;-73
2023/06/04 02:10:09;;;;;;;0.10;0.10;;;;;;;6.07;75.81;100016.56;5040530;28;20292;-73
2023/06/04 02:12:38;;;;;;;0.10;0.10;;;;;;;6.07;75.73;100008.44;5040765;28;20052;-72
2023/06/04 02:15:05;;;;;;;0.10;0.10;;;;;;;6.09;76.30;100014.47;5040206;28;20419;-71
2023/06/04 02:17:32;;;;;;;0.10;0.10;;;;;;;6.10;76.19;100015.28;5039914;28;20167;-73
2023/06/04 02:19:59;;;;;;;0.10;0.10;;;;;;;6.13;75.47;100022.13;5045236;28;20063;-72
2023/06/04 02:22:25;;;;;;;0.10;0.10;;;;;;;6.14;75.82;100012.91;5042788;28;20053;-73
2023/06/04 02:24:53;;;;;;;0.10;0.10;;;;;;;6.17;75.86;100028.72;5040549;28;20052;-72
2023/06/04 02:27:19;;;;;;;0.10;0.10;;;;;;;6.16;75.83;100025.16;5023237;28;20052;-72
2023/06/04 02:29:46;;;;;;;0.10;0.10;;;;;;;6.20;75.89;100041.81;5041487;28;20060;-72
2023/06/04 02:32:12;;;;;;;0.10;0.10;;;;;;;6.17;76.01;100026.84;5041114;28;20048;-72
2023/06/04 02:34:38;;;;;;;0.15;0.15;;;;;;;6.23;76.59;100034.03;5042286;28;20435;-72
2023/06/04 02:37:04;;;;;;;0.10;0.10;;;;;;;6.26;76.34;100032.72;5043897;28;20055;-72
2023/06/04 02:39:30;;;;;;;0.10;0.10;;;;;;;6.29;76.39;100043.09;5042739;28;20053;-73
2023/06/04 02:41:58;;;;;;;0.10;0.10;;;;;;;6.33;76.30;100041.53;5041980;28;20056;-72
2023/06/04 02:44:24;;;;;;;0.10;0.10;;;;;;;6.42;76.73;100049.34;5025523;28;20111;-72
2023/06/04 02:46:50;;;;;;;0.10;0.10;;;;;;;6.50;76.66;100051.66;5032911;28;20071;-72
2023/06/04 02:49:16;;;;;;;0.10;0.10;;;;;;;6.57;76.15;100052.34;5031255;28;20084;-72
2023/06/04 02:51:43;;;;;;;0.10;0.10;;;;;;;6.60;76.21;100056.47;5027080;28;20121;-72
2023/06/04 02:54:09;;;;;;;0.10;0.10;;;;;;;6.62;76.31;100059.75;5047732;28;20045;-72
2023/06/04 02:56:37;;;;;;;0.10;0.10;;;;;;;6.64;76.26;100060.38;5042962;28;20080;-72
2023/06/04 02:59:04;;;;;;;0.10;0.10;;;;;;;6.70;76.38;100067.53;5011275;28;20045;-72
2023/06/04 03:01:31;;;;;;;0.13;0.13;;;;;;;6.76;76.31;100069.28;5046553;28;20064;-73
2023/06/04 03:03:57;;;;;;;0.10;0.10;;;;;;;6.83;76.11;100077.28;5046782;28;20543;-73
2023/06/04 03:06:23;;;;;;;0.10;0.10;;;;;;;6.83;75.45;100071.03;5045750;28;20156;-73
2023/06/04 03:08:50;;;;;;;0.10;0.10;;;;;;;6.88;75.10;100074.69;5045875;28;20055;-73
2023/06/04 03:11:17;;;;;;;0.10;0.10;;;;;;;6.88;75.27;100073.84;5046491;28;20049;-73
2023/06/04 03:13:43;;;;;;;0.10;0.10;;;;;;;6.92;75.63;100078.56;5046603;28;20052;-73
2023/06/04 03:16:11;;;;;;;0.10;0.10;;;;;;;7.05;75.72;100088.28;5042648;28;20136;-72
2023/06/04 03:18:38;;;;;;;0.10;0.10;;;;;;;7.18;75.22;100098.06;5034137;28;20067;-72
2023/06/04 03:21:04;;;;;;;0.10;0.10;;;;;;;7.13;74.78;100088.97;5045007;28;20073;-73
2023/06/04 03:23:32;;;;;;;0.10;0.10;;;;;;;7.16;74.73;100105.59;5044400;28;20057;-73
2023/06/04 03:25:58;;;;;;;0.10;0.10;;;;;;;7.19;75.26;100112.47;5046411;28;20208;-73
2023/06/04 03:28:24;;;;;;;0.15;0.15;;;;;;;7.26;75.17;100115.03;5045546;28;20059;-72
2023/06/04 03:30:50;;;;;;;0.10;0.10;;;;;;;7.30;74.92;100117.03;5045057;28;20524;-71
2023/06/04 03:33:21;;;;;;;0.10;0.10;;;;;;;7.34;74.66;100126.34;5043710;28;20098;-72
2023/06/04 03:35:47;;;;;;;0.10;0.10;;;;;;;7.40;74.58;100119.09;5026534;28;20113;-71
2023/06/04 03:38:15;;;;;;;0.10;0.10;;;;;;;7.40;74.22;100124.53;5045050;28;20047;-72
2023/06/04 03:40:41;;;;;;;0.10;0.10;;;;;;;7.36;73.77;100123.38;5047071;28;20049;-71
2023/06/04 03:43:09;;;;;;;0.10;0.10;;;;;;;7.34;73.71;100128.25;5028387;28;20044;-73
2023/06/04 03:45:36;;;;;;;0.17;0.17;;;;;;;7.33;73.79;100132.84;5043757;28;20423;-71
2023/06/04 03:48:02;;;;;;;0.10;0.10;;;;;;;7.36;73.26;100134.25;5045846;28;20059;-72
2023/06/04 03:50:32;;;;;;;0.10;0.10;;;;;;;7.41;73.31;100131.63;5043651;28;20362;-72
2023/06/04 03:52:58;;;;;;;0.10;0.10;;;;;;;7.47;73.32;100125.19;5046146;28;20041;-72
2023/06/04 03:55:25;;;;;;;0.10;0.10;;;;;;;7.55;73.13;100134.03;5044206;28;20087;-73
2023/06/04 03:57:52;;;;;;;0.10;0.10;;;;;;;7.65;72.73;100128.75;5044057;28;20064;-73
2023/06/04 04:00:20;;;;;;;0.10;0.10;;;;;;;7.74;72.69;100123.72;5043387;28;20846;-73
2023/06/04 04:02:49;;;;;;;0.10;0.10;;;;;;;7.82;72.41;100131.47;5027944;28;20056;-73
2023/06/04 04:05:22;;;;;;;0.10;0.10;;;;;;;7.89;72.14;100143.03;5027598;28;20052;-73
2023/06/04 04:07:51;;;;;;;0.10;0.10;;;;;;;7.93;72.02;100144.16;5025806;28;20040;-73
2023/06/04 04:10:22;;;;;;;0.10;0.10;;;;;;;7.98;71.86;100148.88;5025402;28;20046;-72
2023/06/04 04:12:48;;;;;;;0.20;0.20;;;;;;;8.01;71.92;100145.66;5022780;28;20049;-73
2023/06/04 04:15:15;;;;;;;;;;;;;;;8.04;71.66;100147.88;5022618;28;20895;-72
2023/06/04 04:17:42;;;;;;;0.10;0.10;;;;;;;8.03;71.27;100148.94;5044043;28;19956;-72
2023/06/04 04:20:10;;;;;;;0.13;0.13;;;;;;;8.04;71.03;100136.97;5020390;28;20425;-72
2023/06/04 04:22:41;;;;;;;0.10;0.10;;;;;;;8.15;70.61;100143.38;5038521;28;20044;-72
2023/06/04 04:25:09;;;;;;;0.10;0.10;;;;;;;8.17;70.41;100145.88;5044877;28;20092;-72
2023/06/04 04:27:40;;;;;;;0.10;0.10;;;;;;;8.20;70.48;100132.59;5045280;28;20350;-72
2023/06/04 04:30:09;;;;;;;0.20;0.20;;;;;;;8.34;70.13;100152.13;5044038;28;20037;-72
2023/06/04 04:32:38;;;;;;;0.10;0.10;;;;;;;8.36;69.51;100157.31;5044500;28;20119;-72
2023/06/04 04:35:08;;;;;;;0.20;0.20;;;;;;;8.38;69.63;100153.25;5045175;28;20136;-73
2023/06/04 04:37:38;;;;;;;0.20;0.20;;;;;;;8.49;69.68;100151.47;5041940;28;20084;-73
2023/06/04 04:40:10;;;;;;;0.10;0.10;;;;;;;8.66;69.15;100158.81;5026968;28;20041;-72
2023/06/04 04:42:39;;;;;;;0.10;0.10;;;;;;;8.74;69.02;100157.53;5042438;28;20047;-73
2023/06/04 04:45:09;;;;;;;0.10;0.10;;;;;;;8.83;69.07;100166.94;5009476;28;20408;-72
2023/06/04 04:47:35;;;;;;;;;;;;;;;8.84;68.92;100167.78;5044339;28;20049;-72
2023/06/04 04:50:01;;;;;;;0.10;0.10;;;;;;;8.84;68.97;100159.59;5043818;28;19932;-73
2023/06/04 04:52:27;;;;;;;0.10;0.10;;;;;;;8.85;69.09;100164.78;5042904;28;20082;-72
2023/06/04 04:54:55;;;;;;;0.10;0.10;;;;;;;8.94;68.88;100167.88;5057684;28;20496;-72
2023/06/04 04:57:24;;;;;;;0.10;0.10;;;;;;;9.03;68.20;100168.25;5058554;28;20473;-72
2023/06/04 04:59:54;;;;;;;0.10;0.10;;;;;;;9.04;68.31;100176.19;5045389;28;20067;-72
2023/06/04 05:02:20;;;;;;;0.10;0.10;;;;;;;9.07;68.08;100169.41;5043954;28;20532;-72
2023/06/04 05:04:47;;;;;;;0.10;0.10;;;;;;;9.15;67.92;100171.66;5041803;28;20135;-72
2023/06/04 05:07:15;;;;;;;0.10;0.10;;;;;;;9.20;67.56;100165.44;5024953;28;20048;-72
2023/06/04 05:09:41;;;;;;;0.10;0.10;;;;;;;9.23;67.17;100175.84;5043945;28;20045;-72
2023/06/04 05:12:08;;;;;;;0.10;0.10;;;;;;;9.16;66.55;100167.84;5026760;28;20044;-72
2023/06/04 05:14:37;;;;;;;0.10;0.10;;;;;;;9.18;67.01;100179.34;5037402;28;20071;-72
2023/06/04 05:17:06;;;;;;;0.20;0.20;;;;;;;9.29;66.53;100179.44;5025647;28;20234;-72
2023/06/04 05:19:33;;;;;;;0.20;0.20;;;;;;;9.32;65.93;100185.22;5042329;28;20055;-73
2023/06/04 05:22:00;;;;;;;0.17;0.17;;;;;;;9.36;65.57;100174.59;5023745;28;20471;-72
2023/06/04 05:24:28;;;;;;;0.10;0.10;;;;;;;9.34;65.40;100190.41;5027443;28;20408;-73
2023/06/04 05:26:58;;;;;;;0.10;0.10;;;;;;;9.31;65.32;100183.59;5025921;28;20049;-72
2023/06/04 05:29:25;;;;;;;0.10;0.10;;;;;;;9.37;64.90;100179.00;5042296;28;20151;-73
2023/06/04 05:31:51;;;;;;;0.10;0.10;;;;;;;9.39;64.84;100184.19;5042284;28;20037;-72
2023/06/04 05:34:21;;;;;;;0.20;0.20;;;;;;;9.44;64.62;100185.06;5040015;28;20044;-72
2023/06/04 05:36:49;;;;;;;0.10;0.10;;;;;;;9.49;64.31;100171.44;5010354;28;20072;-72
2023/06/04 05:39:18;;;;;;;;;;;;;;;9.62;63.94;100188.50;5044715;28;20087;-73
2023/06/04 05:42:02;;;;;;;0.10;0.10;;;;;;;9.71;62.86;100178.75;5045099;28;19947;-73
2023/06/04 05:44:28;;;;;;;0.10;0.10;;;;;;;9.77;62.83;100179.63;5044461;28;20068;-71
2023/06/04 05:46:55;;;;;;;0.10;0.10;;;;;;;9.84;63.15;100177.50;5027228;28;20055;-73
2023/06/04 05:49:25;;;;;;;0.20;0.20;;;;;;;9.97;63.01;100175.41;5039782;28;20056;-72
2023/06/04 05:51:52;;;;;;;0.10;0.10;;;;;;;10.10;62.55;100183.16;5027066;28;20059;-72
2023/06/04 05:54:18;;;;;;;0.10;0.10;;;;;;;10.16;61.76;100184.84;5026475;28;20045;-72
2023/06/04 05:56:44;;;;;;;0.10;0.10;;;;;;;10.18;60.64;100185.41;5043030;28;20067;-72
2023/06/04 05:59:11;;;;;;;0.20;0.20;;;;;;;10.19;59.64;100189.78;5025779;28;20045;-73
2023/06/04 06:01:38;;;;;;;0.15;0.15;;;;;;;10.15;60.28;100191.41;5027730;28;20073;-72
2023/06/04 06:04:05;;;;;;;0.20;0.20;;;;;;;10.21;59.85;100184.06;5043484;28;20049;-72
2023/06/04 06:06:33;;;;;;;0.20;0.20;;;;;;;10.38;59.24;100188.53;5042394;28;20114;-73
2023/06/04 06:08:59;;;;;;;0.20;0.20;;;;;;;10.45;59.34;100176.31;5041202;28;20052;-74
2023/06/04 06:11:27;;;;;;;0.20;0.20;;;;;;;10.58;57.32;100185.13;5056965;28;20052;-73
2023/06/04 06:13:53;;;;;;;;;;;;;;;10.58;57.14;100183.19;5041125;28;20299;-73
2023/06/04 06:16:20;;;;;;;0.20;0.20;;;;;;;10.66;56.05;100184.59;5022831;28;20043;-73
2023/06/04 06:18:47;;;;;;;0.20;0.20;;;;;;;10.86;55.95;100185.81;5023029;28;20075;-73
2023/06/04 06:21:13;;;;;;;0.20;0.20;;;;;;;11.09;55.90;100192.75;5037904;28;20059;-73
2023/06/04 06:23:41;;;;;;;0.20;0.20;;;;;;;11.30;55.20;100190.84;5045151;28;20139;-72
2023/06/04 06:26:08;;;;;;;;;;;;;;;11.60;54.78;100191.19;5010072;28;20617;-72
2023/06/04 06:28:39;;;;;;;0.20;0.20;;;;;;;11.80;53.01;100197.78;5040967;28;19924;-71
2023/06/04 06:31:07;;;;;;;0.20;0.20;;;;;;;11.74;53.34;100194.22;5026205;28;20036;-72
2023/06/04 06:33:33;;;;;;;0.20;0.20;;;;;;;11.69;52.62;100181.34;5038845;28;20045;-72
2023/06/04 06:36:02;;;;;;;0.20;0.20;;;;;;;12.00;52.44;100191.50;5040404;28;20081;-71
2023/06/04 06:38:28;;;;;;;0.20;0.20;;;;;;;12.04;51.51;100193.44;5040149;28;20139;-72
2023/06/04 06:40:56;;;;;;;0.20;0.20;;;;;;;12.39;51.37;100184.63;5042112;28;20044;-71
2023/06/04 06:43:21;;;;;;;;;;;;;;;12.72;51.17;100185.06;5043092;28;20051;-72
2023/06/04 06:45:47;;;;;;;0.20;0.20;;;;;;;12.84;50.24;100185.56;5037216;28;19956;-72
2023/06/04 06:48:14;;;;;;;0.20;0.20;;;;;;;13.16;49.83;100183.50;5029283;28;20049;-72
2023/06/04 06:50:40;;;;;;;0.20;0.20;;;;;;;13.43;48.56;100166.63;5037009;28;20079;-71
2023/06/04 06:53:06;;;;;;;0.20;0.20;;;;;;;13.34;47.71;100177.34;5043304;28;20045;-71
2023/06/04 06:55:32;;;;;;;0.20;0.20;;;;;;;13.12;48.03;100183.25;5039814;28;20051;-72
2023/06/04 06:58:00;;;;;;;0.20;0.20;;;;;;;12.98;49.40;100193.22;5041767;28;20562;-72
2023/06/04 07:00:26;;;;;;;;;;;;;;;13.02;48.10;100188.78;5041687;28;20045;-72
2023/06/04 07:02:52;;;;;;;0.20;0.20;;;;;;;12.72;49.48;100194.13;5043475;28;19971;-73
2023/06/04 07:05:18;;;;;;;0.20;0.20;;;;;;;12.70;49.99;100195.50;5039247;28;20071;-72
2023/06/04 07:07:44;;;;;;;0.20;0.20;;;;;;;13.33;48.30;100194.13;5040578;28;20061;-72
2023/06/04 07:10:11;;;;;;;0.20;0.20;;;;;;;13.87;47.63;100202.56;5042529;28;20048;-72
2023/06/04 07:12:37;;;;;;;0.20;0.20;;;;;;;14.01;45.55;100203.53;5040872;28;20036;-72
2023/06/04 07:15:06;;;;;;;0.20;0.20;;;;;;;13.87;46.44;100199.81;5040690;28;20033;-72
2023/06/04 07:17:33;;;;;;;0.20;0.20;;;;;;;13.78;46.22;100201.53;5024331;28;20045;-72
2023/06/04 07:20:00;;;;;;;0.25;0.25;;;;;;;13.59;47.35;100197.53;5041699;28;20116;-72
2023/06/04 07:22:26;;;;;;;0.20;0.20;;;;;;;13.63;47.11;100191.47;5040502;28;20045;-72
2023/06/04 07:24:52;;;;;;;0.20;0.20;;;;;;;13.86;46.39;100190.75;5039832;28;20053;-72
2023/06/04 07:27:19;;;;;;;0.20;0.20;;;;;;;13.73;46.77;100191.41;5041848;28;20389;-72
2023/06/04 07:29:45;;;;;;;0.20;0.20;;;;;;;13.64;46.31;100193.13;5023897;28;20494;-72
2023/06/04 07:32:13;;;;;;;0.30;0.30;;;;;;;14.13;45.61;100192.19;5037018;28;20130;-72
2023/06/04 07:34:39;;;;;;;0.30;0.30;;;;;;;14.66;44.43;100198.78;5037186;28;20754;-72
2023/06/04 07:37:06;;;;;;;0.30;0.30;;;;;;;14.50;44.15;100198.13;5027411;28;20087;-72
2023/06/04 07:39:32;;;;;;;0.20;0.20;;;;;;;14.48;44.46;100202.28;5024741;28;20050;-73
2023/06/04 07:41:58;;;;;;;0.20;0.20;;;;;;;14.29;44.36;100209.34;5032985;28;20045;-72
2023/06/04 07:44:24;;;;;;;0.30;0.30;;;;;;;14.04;44.08;100202.97;5034754;28;20074;-72
2023/06/04 07:46:50;;;;;;;0.30;0.30;;;;;;;14.39;42.51;100211.16;5040268;28;20063;-72
2023/06/04 07:49:21;;;;;;;0.30;0.30;;;;;;;14.56;42.61;100194.22;4803306;28;10000914;-72
2023/06/04 07:51:47;;;;;;;;;;;;;;;14.46;42.63;100208.91;5043454;28;20307;-72
2023/06/04 07:54:14;;;;;;;0.20;0.20;;;;;;;14.04;43.90;100199.41;5040269;28;19928;-72
2023/06/04 07:56:40;;;;;;;0.20;0.20;;;;;;;13.64;44.93;100199.44;5042717;28;20052;-73
2023/06/04 07:59:06;;;;;;;0.20;0.20;;;;;;;13.63;45.37;100202.47;5039722;28;20293;-73
2023/06/04 08:01:32;;;;;;;0.20;0.20;;;;;;;13.49;45.64;100205.84;5036672;28;20087;-73
2023/06/04 08:03:59;;;;;;;0.20;0.20;;;;;;;13.41;45.65;100199.00;5043696;28;20581;-72
2023/06/04 08:06:27;;;;;;;0.20;0.20;;;;;;;13.56;45.70;100198.13;5027726;28;20071;-71
2023/06/04 08:08:53;;;;;;;0.30;0.30;;;;;;;13.59;45.44;100203.03;5043552;28;20087;-72
2023/06/04 08:11:22;;;;;;;0.30;0.30;;;;;;;13.88;43.26;100199.53;5046583;28;20143;-73
2023/06/04 08:13:49;;;;;;;0.30;0.30;;;;;;;14.70;42.45;100201.78;5042667;28;20705;-72
2023/06/04 08:16:16;;;;;;;0.40;0.40;;;;;;;15.67;41.09;100195.28;5045854;28;20052;-71
2023/06/04 08:19:03;;;;;;;0.30;0.30;;;;;;;16.08;37.31;100196.56;5032949;28;20049;-71
2023/06/04 08:21:41;;;;;;;0.30;0.30;;;;;;;15.76;38.55;100198.16;5031013;28;20037;-72
2023/06/04 08:24:27;;;;;;;0.20;0.20;;;;;;;15.09;39.13;100205.47;5038123;28;20064;-72
2023/06/04 08:27:12;;;;;;;0.20;0.20;;;;;;;14.15;39.44;100200.97;5020341;28;20543;-72
2023/06/04 08:29:58;;;;;;;0.17;0.17;;;;;;;13.68;40.71;100214.25;5033122;28;20086;-72
2023/06/04 08:32:45;;;;;;;0.20;0.20;;;;;;;13.28;41.98;100218.88;5046012;28;20049;-72
2023/06/04 08:35:17;;;;;;;0.13;0.13;;;;;;;12.96;43.52;100195.41;5044623;28;20106;-72
2023/06/04 08:37:45;;;;;;;0.20;0.20;;;;;;;12.85;43.77;100213.81;5049447;28;20045;-72
2023/06/04 08:40:11;;;;;;;;;;;;;;;12.79;43.38;100218.50;5048327;28;20072;-72
2023/06/04 08:42:41;;;;;;;0.20;0.20;;;;;;;12.87;42.57;100214.34;5046181;28;19924;-72
2023/06/04 08:45:11;;;;;;;0.20;0.20;;;;;;;12.98;42.34;100212.41;5045376;28;20576;-71
2023/06/04 08:47:38;;;;;;;0.20;0.20;;;;;;;13.09;42.69;100193.97;5028228;28;20044;-72
2023/06/04 08:50:09;;;;;;;0.30;0.30;;;;;;;13.36;42.66;100211.97;5046062;28;20040;-72
2023/06/04 08:52:37;;;;;;;0.20;0.20;;;;;;;13.55;42.87;100210.22;5045622;28;20713;-70
2023/06/04 08:55:06;;;;;;;0.30;0.30;;;;;;;13.97;42.25;100218.97;5028791;28;20118;-72
2023/06/04 08:57:32;;;;;;;0.20;0.20;;;;;;;14.26;40.94;100209.09;5047301;28;20143;-72
2023/06/04 08:59:58;;;;;;;0.45;0.35;;;;;;;14.55;40.22;100211.84;5045789;28;20331;-72
2023/06/04 09:02:27;;;;;;;0.30;0.30;;;;;;;14.52;39.66;100219.84;5045187;28;20440;-72
2023/06/04 09:04:54;;;;;;;0.30;0.30;;;;;;;14.38;38.71;100227.97;5042249;28;20072;-72
2023/06/04 09:07:20;;;;;;;0.30;0.30;;;;;;;14.40;38.61;100223.00;5040736;28;20053;-72
2023/06/04 09:09:48;;;;;;;0.30;0.30;;;;;;;14.34;38.32;100211.22;5043075;28;20053;-72
2023/06/04 09:12:25;;;;;;;1.45;0.30;;;;;;;14.38;37.35;100223.28;5044226;28;20056;-72
2023/06/04 09:14:51;;;;;;;0.30;0.30;;;;;;;14.46;37.71;100219.91;5038406;28;20049;-72
2023/06/04 09:17:22;;;;;;;0.30;0.30;;;;;;;14.48;37.94;100221.56;5027748;28;20105;-72
2023/06/04 09:19:48;;;;;;;0.20;0.20;;;;;;;14.42;37.75;100223.53;5041852;28;20045;-72
2023/06/04 09:22:14;;;;;;;0.25;0.25;;;;;;;14.15;37.91;100225.72;5046922;28;20049;-72
2023/06/04 09:24:42;;;;;;;0.20;0.20;;;;;;;13.78;39.20;100224.34;5043672;28;20049;-72
2023/06/04 09:27:18;;;;;;;0.20;0.20;;;;;;;13.57;40.84;100229.16;5046200;28;20053;-72
2023/06/04 09:29:51;;;;;;;0.20;0.20;;;;;;;13.36;39.44;100222.94;5027780;28;20144;-71
2023/06/04 09:32:21;;;;;;;0.20;0.20;;;;;;;13.15;41.34;100229.34;5044205;28;20049;-71
2023/06/04 09:34:47;;;;;;;0.20;0.20;;;;;;;13.50;41.11;100231.41;5041395;28;20052;-72
2023/06/04 09:37:16;;;;;;;0.30;0.30;;;;;;;13.80;40.89;100235.84;5046853;28;20198;-72
2023/06/04 09:39:42;;;;;;;0.30;0.30;;;;;;;13.96;39.67;100228.34;5029655;28;20136;-72
2023/06/04 09:42:09;;;;;;;0.30;0.30;;;;;;;14.22;39.76;100230.88;5046553;28;20103;-71
2023/06/04 09:44:47;;;;;;;0.30;0.30;;;;;;;14.48;38.90;100224.31;5043293;28;20053;-72
2023/06/04 09:47:13;;;;;;;0.30;0.30;;;;;;;14.68;38.08;100237.84;5046395;28;20052;-72
2023/06/04 09:49:42;;;;;;;0.30;0.30;;;;;;;14.94;37.95;100231.25;5046161;28;20055;-72
2023/06/04 09:52:09;;;;;;;0.30;0.30;;;;;;;15.49;36.94;100221.75;5043258;28;20135;-72
2023/06/04 09:54:36;;;;;;;0.40;0.40;;;;;;;15.71;36.03;100230.22;5043948;28;20049;-72
2023/06/04 09:57:04;;;;;;;0.50;0.50;;;;;;;15.86;34.88;100220.06;5042555;28;20082;-72
2023/06/04 09:59:36;;;;;;;0.50;0.50;;;;;;;16.15;35.22;100228.16;5043197;28;20140;-72
2023/06/04 10:02:05;;;;;;;0.80;0.80;;;;;;;17.25;33.44;100222.25;5008914;28;20149;-72
2023/06/04 10:04:34;;;;;;;0.50;0.50;;;;;;;18.14;32.15;100221.84;5029817;28;20044;-73
2023/06/04 10:07:04;;;;;;;0.50;0.50;;;;;;;18.80;31.50;100225.09;5042993;28;20045;-72
2023/06/04 10:09:32;;;;;;;0.40;0.40;;;;;;;18.59;31.19;100224.84;5034651;28;20041;-72
2023/06/04 10:12:01;;;;;;;0.40;0.40;;;;;;;17.96;32.23;100226.41;5040042;28;20053;-72
2023/06/04 10:14:35;;;;;;;0.40;0.40;;;;;;;17.69;33.15;100219.88;5044817;28;20504;-72
2023/06/04 10:17:05;;;;;;;0.50;0.50;;;;;;;17.20;33.08;100219.56;5041004;28;20045;-72
2023/06/04 10:19:33;;;;;;;0.50;0.50;;;;;;;17.31;33.43;100206.34;5027652;28;20053;-72
2023/06/04 10:21:59;;;;;;;0.57;0.57;;;;;;;17.40;32.98;100217.47;5027137;28;20049;-72
2023/06/04 10:24:26;;;;;;;0.60;0.60;;;;;;;17.84;32.09;100204.84;5043302;28;20048;-72
2023/06/04 10:26:57;;;;;;;0.60;0.60;;;;;;;18.60;30.96;100218.19;5044590;28;21759;-73
2023/06/04 10:29:26;;;;;;;1.00;1.00;;;;;;;19.47;30.54;100206.53;5027337;28;20041;-73
2023/06/04 10:31:54;;;;;;;0.90;0.90;;;;;;;20.61;28.68;100210.28;5045828;28;20076;-72
2023/06/04 10:34:22;;;;;;;0.60;0.60;;;;;;;21.87;26.63;100220.00;5039667;28;20598;-71
2023/06/04 10:36:48;;;;;;;0.60;0.60;;;;;;;20.81;26.92;100212.34;5042451;28;20132;-72
2023/06/04 10:39:25;;;;;;;0.98;0.98;;;;;;;20.67;26.81;100211.72;5046410;28;20099;-72
2023/06/04 10:41:58;;;;;;;0.98;0.98;;;;;;;21.71;25.13;100225.34;5046173;28;20048;-72
2023/06/04 10:44:24;;;;;;;0.50;0.50;;;;;;;20.87;25.65;100212.16;5042929;28;20053;-71
2023/06/04 10:46:51;;;;;;;0.30;0.30;;;;;;;19.59;27.47;100228.06;5045341;28;20107;-71
2023/06/04 10:49:28;;;;;;;0.30;0.30;;;;;;;17.99;28.73;100214.72;5021984;28;20152;-71
2023/06/04 10:52:02;;;;;;;0.30;0.30;;;;;;;16.87;31.15;100214.16;5039838;28;20423;-72
2023/06/04 10:54:29;;;;;;;0.30;0.30;;;;;;;15.96;32.98;100208.06;5034467;28;20045;-71
2023/06/04 10:56:55;;;;;;;0.30;0.30;;;;;;;15.59;34.20;100213.31;5027607;28;20037;-71
2023/06/04 10:59:24;;;;;;;0.30;0.30;;;;;;;15.46;35.28;100214.88;5042465;28;20053;-71
2023/06/04 11:01:50;;;;;;;0.30;0.30;;;;;;;15.34;35.74;100209.81;5042267;28;20143;-71
2023/06/04 11:04:21;;;;;;;0.30;0.30;;;;;;;15.19;35.93;100218.28;5038603;28;20033;-72
2023/06/04 11:06:48;;;;;;;0.30;0.30;;;;;;;14.72;37.13;100218.84;5041344;28;20053;-72
2023/06/04 11:09:17;;;;;;;0.35;0.30;;;;;;;14.70;37.37;100221.06;5042982;28;20081;-71
2023/06/04 11:11:44;;;;;;;0.30;0.30;;;;;;;14.88;36.97;100231.31;5023862;28;20433;-73
2023/06/04 11:14:12;;;;;;;0.30;0.30;;;;;;;15.23;36.60;100222.91;5041840;28;20041;-72
2023/06/04 11:16:39;;;;;;;0.35;0.35;;;;;;;15.49;36.23;100224.50;4694835;28;10000189;-72
2023/06/04 11:19:05;;;;;;;0.50;0.50;;;;;;;16.02;34.98;100215.97;5045497;28;20492;-72
2023/06/04 11:21:34;;;;;;;0.50;0.50;;;;;;;17.19;33.73;100212.41;5044649;28;20033;-72
2023/06/04 11:24:03;;;;;;;0.50;0.50;;;;;;;18.04;31.78;100221.28;5042022;28;20148;-71
2023/06/04 11:26:31;;;;;;;0.98;0.98;;;;;;;19.11;30.43;100213.16;5038417;28;20052;-72
2023/06/04 11:28:58;;;;;;;0.40;0.40;;;;;;;19.93;28.40;100212.56;5040090;28;20041;-71
2023/06/04 11:31:24;;;;;;;0.50;0.50;;;;;;;19.13;29.54;100220.00;5033002;28;20041;-72
2023/06/04 11:33:51;;;;;;;1.10;1.10;;;;;;;19.80;29.02;100221.84;5041676;28;20059;-71
2023/06/04 11:36:25;;;;;;;1.10;1.10;;;;;;;21.50;25.71;100214.19;5043176;28;20516;-71